sensor_id;sensor_type;location;lat;lon;timestamp;temperature;humidity
29849;DHT22;16728;50.832;5.590;2023-09-18T00:01:52;21.00;99.90
29849;DHT22;16728;50.832;5.590;2023-09-18T00:04:54;21.00;99.90
29849;DHT22;16728;50.832;5.590;2023-09-18T00:07:56;21.00;99.90
29849;DHT22;16728;50.832;5.590;2023-09-18T00:10:58;20.90;99.90
29849;DHT22;16728;50.832;5.590;2023-09-18T00:14:02;21.00;99.90
29849;DHT22;16728;50.832;5.590;2023-09-18T00:17:05;20.90;99.90
29849;DHT22;16728;50.832;5.590;2023-09-18T00:20:08;20.90;99.90
29849;DHT22;16728;50.832;5.590;2023-09-18T00:23:11;20.90;99.90
29849;DHT22;16728;50.832;5.590;2023-09-18T00:26:13;20.80;99.90
29849;DHT22;16728;50.832;5.590;2023-09-18T00:29:15;20.90;99.90
29849;DHT22;16728;50.832;5.590;2023-09-18T00:32:17;20.90;99.90
29849;DHT22;16728;50.832;5.590;2023-09-18T00:35:19;20.90;99.90
29849;DHT22;16728;50.832;5.590;2023-09-18T00:38:21;21.00;99.90
29849;DHT22;16728;50.832;5.590;2023-09-18T00:41:22;21.00;99.90
29849;DHT22;16728;50.832;5.590;2023-09-18T00:44:25;20.90;99.90
29849;DHT22;16728;50.832;5.590;2023-09-18T00:47:28;21.00;99.90
29849;DHT22;16728;50.832;5.590;2023-09-18T00:50:31;21.00;99.90
29849;DHT22;16728;50.832;5.590;2023-09-18T00:53:33;21.00;99.90
29849;DHT22;16728;50.832;5.590;2023-09-18T00:56:40;20.90;99.90
29849;DHT22;16728;50.832;5.590;2023-09-18T00:59:42;20.90;99.90
29849;DHT22;16728;50.832;5.590;2023-09-18T01:02:44;20.90;99.90
29849;DHT22;16728;50.832;5.590;2023-09-18T01:05:47;20.90;99.90
29849;DHT22;16728;50.832;5.590;2023-09-18T01:08:49;21.00;99.90
29849;DHT22;16728;50.832;5.590;2023-09-18T01:12:04;21.00;99.90
29849;DHT22;16728;50.832;5.590;2023-09-18T01:15:20;21.00;99.90
29849;DHT22;16728;50.832;5.590;2023-09-18T01:18:24;20.90;99.90
29849;DHT22;16728;50.832;5.590;2023-09-18T01:21:26;20.90;99.90
29849;DHT22;16728;50.832;5.590;2023-09-18T01:24:28;20.80;99.90
29849;DHT22;16728;50.832;5.590;2023-09-18T01:27:33;20.80;99.90
29849;DHT22;16728;50.832;5.590;2023-09-18T01:30:35;20.90;99.90
29849;DHT22;16728;50.832;5.590;2023-09-18T01:33:37;20.90;99.90
29849;DHT22;16728;50.832;5.590;2023-09-18T01:36:40;20.90;99.90
29849;DHT22;16728;50.832;5.590;2023-09-18T01:39:43;20.90;99.90
29849;DHT22;16728;50.832;5.590;2023-09-18T01:42:46;20.80;99.90
29849;DHT22;16728;50.832;5.590;2023-09-18T01:45:49;20.70;99.90
29849;DHT22;16728;50.832;5.590;2023-09-18T01:48:51;20.70;99.90
29849;DHT22;16728;50.832;5.590;2023-09-18T01:51:54;20.80;99.90
29849;DHT22;16728;50.832;5.590;2023-09-18T01:54:56;20.80;99.90
29849;DHT22;16728;50.832;5.590;2023-09-18T01:57:59;20.80;99.90
29849;DHT22;16728;50.832;5.590;2023-09-18T02:01:01;20.70;99.90
29849;DHT22;16728;50.832;5.590;2023-09-18T02:04:04;20.80;99.90
29849;DHT22;16728;50.832;5.590;2023-09-18T02:07:26;20.80;99.90
29849;DHT22;16728;50.832;5.590;2023-09-18T02:10:29;21.00;99.90
29849;DHT22;16728;50.832;5.590;2023-09-18T02:13:31;21.10;99.90
29849;DHT22;16728;50.832;5.590;2023-09-18T02:16:34;21.10;99.90
29849;DHT22;16728;50.832;5.590;2023-09-18T02:19:37;21.20;99.90
29849;DHT22;16728;50.832;5.590;2023-09-18T02:22:39;21.30;99.90
29849;DHT22;16728;50.832;5.590;2023-09-18T02:25:41;21.40;99.90
29849;DHT22;16728;50.832;5.590;2023-09-18T02:28:44;21.40;99.90
29849;DHT22;16728;50.832;5.590;2023-09-18T02:31:46;21.50;99.90
29849;DHT22;16728;50.832;5.590;2023-09-18T02:34:48;21.50;99.90
29849;DHT22;16728;50.832;5.590;2023-09-18T02:37:50;21.40;99.90
29849;DHT22;16728;50.832;5.590;2023-09-18T02:40:52;21.40;99.90
29849;DHT22;16728;50.832;5.590;2023-09-18T02:43:54;21.40;99.90
29849;DHT22;16728;50.832;5.590;2023-09-18T02:46:57;21.40;99.90
29849;DHT22;16728;50.832;5.590;2023-09-18T02:49:59;21.40;99.90
29849;DHT22;16728;50.832;5.590;2023-09-18T02:53:01;21.40;99.90
29849;DHT22;16728;50.832;5.590;2023-09-18T02:56:03;21.30;99.90
29849;DHT22;16728;50.832;5.590;2023-09-18T02:59:05;21.30;99.90
29849;DHT22;16728;50.832;5.590;2023-09-18T03:02:07;21.30;99.90
29849;DHT22;16728;50.832;5.590;2023-09-18T03:05:09;21.30;99.90
29849;DHT22;16728;50.832;5.590;2023-09-18T03:08:12;21.30;99.90
29849;DHT22;16728;50.832;5.590;2023-09-18T03:11:14;21.30;99.90
29849;DHT22;16728;50.832;5.590;2023-09-18T03:14:17;21.30;99.90
29849;DHT22;16728;50.832;5.590;2023-09-18T03:17:20;21.20;99.90
29849;DHT22;16728;50.832;5.590;2023-09-18T03:20:23;21.20;99.90
29849;DHT22;16728;50.832;5.590;2023-09-18T03:23:25;21.20;99.90
29849;DHT22;16728;50.832;5.590;2023-09-18T03:26:27;21.20;99.90
29849;DHT22;16728;50.832;5.590;2023-09-18T03:29:29;21.20;99.90
29849;DHT22;16728;50.832;5.590;2023-09-18T03:32:32;21.20;99.90
29849;DHT22;16728;50.832;5.590;2023-09-18T03:35:45;21.20;99.90
29849;DHT22;16728;50.832;5.590;2023-09-18T03:38:49;21.10;99.90
29849;DHT22;16728;50.832;5.590;2023-09-18T03:41:51;21.20;99.90
29849;DHT22;16728;50.832;5.590;2023-09-18T03:44:53;21.10;99.90
29849;DHT22;16728;50.832;5.590;2023-09-18T03:47:55;21.10;99.90
29849;DHT22;16728;50.832;5.590;2023-09-18T03:50:57;21.10;99.90
29849;DHT22;16728;50.832;5.590;2023-09-18T03:53:59;21.10;99.90
29849;DHT22;16728;50.832;5.590;2023-09-18T03:57:01;21.10;99.90
29849;DHT22;16728;50.832;5.590;2023-09-18T04:00:06;21.10;99.90
29849;DHT22;16728;50.832;5.590;2023-09-18T04:03:09;21.10;99.90
29849;DHT22;16728;50.832;5.590;2023-09-18T04:06:11;21.10;99.90
29849;DHT22;16728;50.832;5.590;2023-09-18T04:09:13;21.10;99.90
29849;DHT22;16728;50.832;5.590;2023-09-18T04:12:17;21.10;99.90
29849;DHT22;16728;50.832;5.590;2023-09-18T04:15:19;21.00;99.90
29849;DHT22;16728;50.832;5.590;2023-09-18T04:18:22;21.00;99.90
29849;DHT22;16728;50.832;5.590;2023-09-18T04:21:24;21.10;99.90
29849;DHT22;16728;50.832;5.590;2023-09-18T04:24:27;21.10;99.90
29849;DHT22;16728;50.832;5.590;2023-09-18T04:27:33;21.10;99.90
29849;DHT22;16728;50.832;5.590;2023-09-18T04:30:35;21.00;99.90
29849;DHT22;16728;50.832;5.590;2023-09-18T04:33:37;21.00;99.90
29849;DHT22;16728;50.832;5.590;2023-09-18T04:36:40;21.00;99.90
29849;DHT22;16728;50.832;5.590;2023-09-18T04:39:42;20.90;99.90
29849;DHT22;16728;50.832;5.590;2023-09-18T04:42:44;21.00;99.90
29849;DHT22;16728;50.832;5.590;2023-09-18T04:45:46;21.00;99.90
29849;DHT22;16728;50.832;5.590;2023-09-18T04:48:48;21.00;99.90
29849;DHT22;16728;50.832;5.590;2023-09-18T04:51:50;20.90;99.90
29849;DHT22;16728;50.832;5.590;2023-09-18T04:54:52;20.90;99.90
29849;DHT22;16728;50.832;5.590;2023-09-18T04:57:56;20.90;99.90
29849;DHT22;16728;50.832;5.590;2023-09-18T05:01:00;20.90;99.90
29849;DHT22;16728;50.832;5.590;2023-09-18T05:04:02;20.90;99.90
29849;DHT22;16728;50.832;5.590;2023-09-18T05:07:04;20.70;99.90
29849;DHT22;16728;50.832;5.590;2023-09-18T05:10:07;20.80;99.90
29849;DHT22;16728;50.832;5.590;2023-09-18T05:13:10;20.80;99.90
29849;DHT22;16728;50.832;5.590;2023-09-18T05:16:13;20.80;99.90
29849;DHT22;16728;50.832;5.590;2023-09-18T05:19:15;20.80;99.90
29849;DHT22;16728;50.832;5.590;2023-09-18T05:22:17;20.70;99.90
29849;DHT22;16728;50.832;5.590;2023-09-18T05:25:19;20.70;99.90
29849;DHT22;16728;50.832;5.590;2023-09-18T05:28:23;20.70;99.90
29849;DHT22;16728;50.832;5.590;2023-09-18T05:31:25;20.70;99.90
29849;DHT22;16728;50.832;5.590;2023-09-18T05:34:28;20.60;99.90
29849;DHT22;16728;50.832;5.590;2023-09-18T05:37:30;20.60;99.90
29849;DHT22;16728;50.832;5.590;2023-09-18T05:40:32;20.50;99.90
29849;DHT22;16728;50.832;5.590;2023-09-18T05:43:35;20.50;99.90
29849;DHT22;16728;50.832;5.590;2023-09-18T05:46:37;20.50;99.90
29849;DHT22;16728;50.832;5.590;2023-09-18T05:49:39;20.50;99.90
29849;DHT22;16728;50.832;5.590;2023-09-18T05:52:41;20.60;99.90
29849;DHT22;16728;50.832;5.590;2023-09-18T05:55:44;20.50;99.90
29849;DHT22;16728;50.832;5.590;2023-09-18T05:58:46;20.60;99.90
29849;DHT22;16728;50.832;5.590;2023-09-18T06:01:48;20.50;99.90
29849;DHT22;16728;50.832;5.590;2023-09-18T06:05:00;20.50;99.90
29849;DHT22;16728;50.832;5.590;2023-09-18T06:08:02;20.50;99.90
29849;DHT22;16728;50.832;5.590;2023-09-18T06:11:04;20.50;99.90
29849;DHT22;16728;50.832;5.590;2023-09-18T06:14:06;20.50;99.90
29849;DHT22;16728;50.832;5.590;2023-09-18T06:17:08;20.50;99.90
29849;DHT22;16728;50.832;5.590;2023-09-18T06:20:12;20.50;99.90
29849;DHT22;16728;50.832;5.590;2023-09-18T06:23:18;20.50;99.90
29849;DHT22;16728;50.832;5.590;2023-09-18T06:26:20;20.50;99.90
29849;DHT22;16728;50.832;5.590;2023-09-18T06:29:23;20.50;99.90
29849;DHT22;16728;50.832;5.590;2023-09-18T06:32:25;20.50;99.90
29849;DHT22;16728;50.832;5.590;2023-09-18T06:35:27;20.60;99.90
29849;DHT22;16728;50.832;5.590;2023-09-18T06:38:29;20.50;99.90
29849;DHT22;16728;50.832;5.590;2023-09-18T06:41:31;20.50;99.90
29849;DHT22;16728;50.832;5.590;2023-09-18T06:44:34;20.50;99.90
29849;DHT22;16728;50.832;5.590;2023-09-18T06:47:36;20.50;99.90
29849;DHT22;16728;50.832;5.590;2023-09-18T06:50:38;20.50;99.90
29849;DHT22;16728;50.832;5.590;2023-09-18T06:53:42;20.50;99.90
29849;DHT22;16728;50.832;5.590;2023-09-18T06:56:44;20.50;99.90
29849;DHT22;16728;50.832;5.590;2023-09-18T06:59:47;20.50;99.90
29849;DHT22;16728;50.832;5.590;2023-09-18T07:02:49;20.50;99.90
29849;DHT22;16728;50.832;5.590;2023-09-18T07:05:52;20.50;99.90
29849;DHT22;16728;50.832;5.590;2023-09-18T07:08:54;20.50;99.90
29849;DHT22;16728;50.832;5.590;2023-09-18T07:11:56;20.50;99.90
29849;DHT22;16728;50.832;5.590;2023-09-18T07:15:05;20.50;99.90
29849;DHT22;16728;50.832;5.590;2023-09-18T07:18:09;20.50;99.90
29849;DHT22;16728;50.832;5.590;2023-09-18T07:21:15;20.50;99.90
29849;DHT22;16728;50.832;5.590;2023-09-18T07:24:17;20.50;99.90
29849;DHT22;16728;50.832;5.590;2023-09-18T07:27:19;20.50;99.90
29849;DHT22;16728;50.832;5.590;2023-09-18T07:30:21;20.60;99.90
29849;DHT22;16728;50.832;5.590;2023-09-18T07:33:24;20.50;99.90
29849;DHT22;16728;50.832;5.590;2023-09-18T07:36:26;20.60;99.90
29849;DHT22;16728;50.832;5.590;2023-09-18T07:39:28;20.60;99.90
29849;DHT22;16728;50.832;5.590;2023-09-18T07:42:31;20.70;99.90
29849;DHT22;16728;50.832;5.590;2023-09-18T07:45:34;20.70;99.90
29849;DHT22;16728;50.832;5.590;2023-09-18T07:48:36;20.70;99.90
29849;DHT22;16728;50.832;5.590;2023-09-18T07:51:39;20.70;99.90
29849;DHT22;16728;50.832;5.590;2023-09-18T07:54:41;20.70;99.90
29849;DHT22;16728;50.832;5.590;2023-09-18T07:57:44;20.70;99.90
29849;DHT22;16728;50.832;5.590;2023-09-18T08:00:47;20.70;99.90
29849;DHT22;16728;50.832;5.590;2023-09-18T08:03:50;20.70;99.90
29849;DHT22;16728;50.832;5.590;2023-09-18T08:06:52;20.70;99.90
29849;DHT22;16728;50.832;5.590;2023-09-18T08:09:54;20.70;99.90
29849;DHT22;16728;50.832;5.590;2023-09-18T08:12:56;20.70;99.90
29849;DHT22;16728;50.832;5.590;2023-09-18T08:15:59;20.80;99.90
29849;DHT22;16728;50.832;5.590;2023-09-18T08:19:01;20.80;99.90
29849;DHT22;16728;50.832;5.590;2023-09-18T08:22:03;20.80;99.90
29849;DHT22;16728;50.832;5.590;2023-09-18T08:25:06;20.80;99.90
29849;DHT22;16728;50.832;5.590;2023-09-18T08:28:12;20.90;99.90
29849;DHT22;16728;50.832;5.590;2023-09-18T08:31:17;20.90;99.90
29849;DHT22;16728;50.832;5.590;2023-09-18T08:34:19;20.90;99.90
29849;DHT22;16728;50.832;5.590;2023-09-18T08:37:30;20.90;99.90
29849;DHT22;16728;50.832;5.590;2023-09-18T08:40:33;21.00;99.90
29849;DHT22;16728;50.832;5.590;2023-09-18T08:43:35;21.00;99.90
29849;DHT22;16728;50.832;5.590;2023-09-18T08:46:39;21.00;99.90
29849;DHT22;16728;50.832;5.590;2023-09-18T08:49:41;21.00;99.90
29849;DHT22;16728;50.832;5.590;2023-09-18T08:52:45;21.10;99.90
29849;DHT22;16728;50.832;5.590;2023-09-18T08:55:48;21.10;99.90
29849;DHT22;16728;50.832;5.590;2023-09-18T08:58:50;21.30;99.90
29849;DHT22;16728;50.832;5.590;2023-09-18T09:01:53;21.50;99.90
29849;DHT22;16728;50.832;5.590;2023-09-18T09:04:55;21.60;99.90
29849;DHT22;16728;50.832;5.590;2023-09-18T09:07:57;21.70;99.90
29849;DHT22;16728;50.832;5.590;2023-09-18T09:10:59;21.90;99.90
29849;DHT22;16728;50.832;5.590;2023-09-18T09:14:14;22.00;99.90
29849;DHT22;16728;50.832;5.590;2023-09-18T09:17:20;22.20;99.90
29849;DHT22;16728;50.832;5.590;2023-09-18T09:20:23;22.30;99.90
29849;DHT22;16728;50.832;5.590;2023-09-18T09:23:27;22.40;99.90
29849;DHT22;16728;50.832;5.590;2023-09-18T09:26:32;22.40;99.90
29849;DHT22;16728;50.832;5.590;2023-09-18T09:29:34;22.40;99.90
29849;DHT22;16728;50.832;5.590;2023-09-18T09:32:36;22.40;99.90
29849;DHT22;16728;50.832;5.590;2023-09-18T09:35:40;22.50;99.90
29849;DHT22;16728;50.832;5.590;2023-09-18T09:38:42;22.70;99.90
29849;DHT22;16728;50.832;5.590;2023-09-18T09:41:46;22.80;99.90
29849;DHT22;16728;50.832;5.590;2023-09-18T09:45:00;22.90;99.90
29849;DHT22;16728;50.832;5.590;2023-09-18T09:48:04;23.00;99.90
29849;DHT22;16728;50.832;5.590;2023-09-18T09:51:17;23.10;99.90
29849;DHT22;16728;50.832;5.590;2023-09-18T09:54:32;23.20;99.90
29849;DHT22;16728;50.832;5.590;2023-09-18T09:57:47;23.20;99.90
29849;DHT22;16728;50.832;5.590;2023-09-18T10:00:54;23.30;99.90
29849;DHT22;16728;50.832;5.590;2023-09-18T10:03:59;23.30;99.90
29849;DHT22;16728;50.832;5.590;2023-09-18T10:07:07;23.40;99.90
29849;DHT22;16728;50.832;5.590;2023-09-18T10:10:10;23.40;99.90
29849;DHT22;16728;50.832;5.590;2023-09-18T10:13:20;23.50;99.90
29849;DHT22;16728;50.832;5.590;2023-09-18T10:16:30;23.60;99.90
29849;DHT22;16728;50.832;5.590;2023-09-18T10:19:50;23.70;99.90
29849;DHT22;16728;50.832;5.590;2023-09-18T10:22:56;23.70;99.90
29849;DHT22;16728;50.832;5.590;2023-09-18T10:25:59;23.90;99.90
29849;DHT22;16728;50.832;5.590;2023-09-18T10:29:06;24.00;99.90
29849;DHT22;16728;50.832;5.590;2023-09-18T10:32:11;24.10;99.90
29849;DHT22;16728;50.832;5.590;2023-09-18T10:35:14;24.00;99.90
29849;DHT22;16728;50.832;5.590;2023-09-18T10:38:18;23.90;99.90
29849;DHT22;16728;50.832;5.590;2023-09-18T10:41:26;23.90;99.90
29849;DHT22;16728;50.832;5.590;2023-09-18T10:44:29;23.80;99.90
29849;DHT22;16728;50.832;5.590;2023-09-18T10:47:34;23.80;99.90
29849;DHT22;16728;50.832;5.590;2023-09-18T10:50:37;23.80;99.90
29849;DHT22;16728;50.832;5.590;2023-09-18T10:53:41;23.80;99.90
29849;DHT22;16728;50.832;5.590;2023-09-18T10:56:44;23.90;99.90
29849;DHT22;16728;50.832;5.590;2023-09-18T10:59:47;24.00;99.90
29849;DHT22;16728;50.832;5.590;2023-09-18T11:02:52;24.00;99.90
29849;DHT22;16728;50.832;5.590;2023-09-18T11:06:05;24.10;99.90
29849;DHT22;16728;50.832;5.590;2023-09-18T11:09:08;24.10;99.90
29849;DHT22;16728;50.832;5.590;2023-09-18T11:12:12;24.10;99.90
29849;DHT22;16728;50.832;5.590;2023-09-18T11:15:30;24.10;99.90
29849;DHT22;16728;50.832;5.590;2023-09-18T11:18:33;24.20;99.90
29849;DHT22;16728;50.832;5.590;2023-09-18T11:21:36;24.20;99.90
29849;DHT22;16728;50.832;5.590;2023-09-18T11:24:38;24.20;99.90
29849;DHT22;16728;50.832;5.590;2023-09-18T11:27:56;24.30;99.90
29849;DHT22;16728;50.832;5.590;2023-09-18T11:30:59;24.30;99.90
29849;DHT22;16728;50.832;5.590;2023-09-18T11:34:15;24.40;99.90
29849;DHT22;16728;50.832;5.590;2023-09-18T11:37:21;24.50;99.90
29849;DHT22;16728;50.832;5.590;2023-09-18T11:40:30;24.50;99.90
29849;DHT22;16728;50.832;5.590;2023-09-18T11:43:39;24.50;99.90
29849;DHT22;16728;50.832;5.590;2023-09-18T11:46:46;24.50;99.90
29849;DHT22;16728;50.832;5.590;2023-09-18T11:49:58;24.50;99.90
29849;DHT22;16728;50.832;5.590;2023-09-18T11:53:01;24.50;99.90
29849;DHT22;16728;50.832;5.590;2023-09-18T11:56:04;24.50;99.90
29849;DHT22;16728;50.832;5.590;2023-09-18T11:59:12;24.50;99.90
29849;DHT22;16728;50.832;5.590;2023-09-18T12:05:30;24.40;99.90
29849;DHT22;16728;50.832;5.590;2023-09-18T12:08:32;24.40;99.90
29849;DHT22;16728;50.832;5.590;2023-09-18T12:11:35;24.40;99.90
29849;DHT22;16728;50.832;5.590;2023-09-18T12:14:37;24.40;99.90
29849;DHT22;16728;50.832;5.590;2023-09-18T12:17:44;24.40;99.90
29849;DHT22;16728;50.832;5.590;2023-09-18T12:20:48;24.50;99.90
29849;DHT22;16728;50.832;5.590;2023-09-18T12:23:50;24.60;99.90
29849;DHT22;16728;50.832;5.590;2023-09-18T12:26:53;24.60;99.90
29849;DHT22;16728;50.832;5.590;2023-09-18T12:29:55;24.60;99.90
29849;DHT22;16728;50.832;5.590;2023-09-18T12:33:01;24.60;99.90
29849;DHT22;16728;50.832;5.590;2023-09-18T12:36:04;24.70;99.90
29849;DHT22;16728;50.832;5.590;2023-09-18T12:39:06;24.60;99.90
29849;DHT22;16728;50.832;5.590;2023-09-18T12:42:08;24.60;99.90
29849;DHT22;16728;50.832;5.590;2023-09-18T12:45:10;24.70;99.90
29849;DHT22;16728;50.832;5.590;2023-09-18T12:48:13;24.70;99.90
29849;DHT22;16728;50.832;5.590;2023-09-18T12:51:15;24.80;99.90
29849;DHT22;16728;50.832;5.590;2023-09-18T12:54:44;24.80;99.90
29849;DHT22;16728;50.832;5.590;2023-09-18T12:57:47;24.80;99.90
29849;DHT22;16728;50.832;5.590;2023-09-18T13:00:51;24.70;99.90
29849;DHT22;16728;50.832;5.590;2023-09-18T13:03:54;24.70;99.90
29849;DHT22;16728;50.832;5.590;2023-09-18T13:07:13;24.70;99.90
29849;DHT22;16728;50.832;5.590;2023-09-18T13:10:15;24.70;99.90
29849;DHT22;16728;50.832;5.590;2023-09-18T13:13:19;24.70;99.90
29849;DHT22;16728;50.832;5.590;2023-09-18T13:16:22;24.70;99.90
29849;DHT22;16728;50.832;5.590;2023-09-18T13:19:24;24.70;99.90
29849;DHT22;16728;50.832;5.590;2023-09-18T13:22:27;24.70;99.90
29849;DHT22;16728;50.832;5.590;2023-09-18T13:25:34;24.60;99.90
29849;DHT22;16728;50.832;5.590;2023-09-18T13:28:36;24.50;99.90
29849;DHT22;16728;50.832;5.590;2023-09-18T13:31:39;24.50;99.90
29849;DHT22;16728;50.832;5.590;2023-09-18T13:34:41;24.60;99.90
29849;DHT22;16728;50.832;5.590;2023-09-18T13:37:43;24.70;99.90
29849;DHT22;16728;50.832;5.590;2023-09-18T13:40:47;24.60;99.90
29849;DHT22;16728;50.832;5.590;2023-09-18T13:43:49;24.60;99.90
29849;DHT22;16728;50.832;5.590;2023-09-18T13:46:56;24.50;99.90
29849;DHT22;16728;50.832;5.590;2023-09-18T13:49:59;24.50;99.90
29849;DHT22;16728;50.832;5.590;2023-09-18T13:53:02;24.50;99.90
29849;DHT22;16728;50.832;5.590;2023-09-18T13:56:05;24.50;99.90
29849;DHT22;16728;50.832;5.590;2023-09-18T13:59:07;24.50;99.90
29849;DHT22;16728;50.832;5.590;2023-09-18T14:02:12;24.40;99.90
29849;DHT22;16728;50.832;5.590;2023-09-18T14:05:14;24.40;99.90
29849;DHT22;16728;50.832;5.590;2023-09-18T14:08:19;24.50;99.90
29849;DHT22;16728;50.832;5.590;2023-09-18T14:11:22;24.50;99.90
29849;DHT22;16728;50.832;5.590;2023-09-18T14:14:24;24.40;99.90
29849;DHT22;16728;50.832;5.590;2023-09-18T14:17:26;24.40;99.90
29849;DHT22;16728;50.832;5.590;2023-09-18T14:20:28;24.50;99.90
29849;DHT22;16728;50.832;5.590;2023-09-18T14:23:30;24.50;99.90
29849;DHT22;16728;50.832;5.590;2023-09-18T14:26:32;24.50;99.90
29849;DHT22;16728;50.832;5.590;2023-09-18T14:29:35;24.50;99.90
29849;DHT22;16728;50.832;5.590;2023-09-18T14:32:37;24.50;99.90
29849;DHT22;16728;50.832;5.590;2023-09-18T14:35:40;24.50;99.90
29849;DHT22;16728;50.832;5.590;2023-09-18T14:38:42;24.50;99.90
29849;DHT22;16728;50.832;5.590;2023-09-18T14:41:44;24.40;99.90
29849;DHT22;16728;50.832;5.590;2023-09-18T14:44:46;24.30;99.90
29849;DHT22;16728;50.832;5.590;2023-09-18T14:47:48;24.30;99.90
29849;DHT22;16728;50.832;5.590;2023-09-18T14:50:54;24.20;99.90
29849;DHT22;16728;50.832;5.590;2023-09-18T14:54:00;24.20;99.90
29849;DHT22;16728;50.832;5.590;2023-09-18T14:57:21;24.30;99.90
29849;DHT22;16728;50.832;5.590;2023-09-18T15:00:23;24.30;99.90
29849;DHT22;16728;50.832;5.590;2023-09-18T15:03:26;24.40;99.90
29849;DHT22;16728;50.832;5.590;2023-09-18T15:06:28;24.40;99.90
29849;DHT22;16728;50.832;5.590;2023-09-18T15:09:31;24.40;99.90
29849;DHT22;16728;50.832;5.590;2023-09-18T15:12:33;24.40;99.90
29849;DHT22;16728;50.832;5.590;2023-09-18T15:15:34;24.50;99.90
29849;DHT22;16728;50.832;5.590;2023-09-18T15:18:38;24.40;99.90
29849;DHT22;16728;50.832;5.590;2023-09-18T15:21:45;24.30;99.90
29849;DHT22;16728;50.832;5.590;2023-09-18T15:24:47;24.30;99.90
29849;DHT22;16728;50.832;5.590;2023-09-18T15:27:49;24.30;99.90
29849;DHT22;16728;50.832;5.590;2023-09-18T15:30:52;24.20;99.90
29849;DHT22;16728;50.832;5.590;2023-09-18T15:33:54;24.20;99.90
29849;DHT22;16728;50.832;5.590;2023-09-18T15:36:57;24.10;99.90
29849;DHT22;16728;50.832;5.590;2023-09-18T15:39:59;24.00;99.90
29849;DHT22;16728;50.832;5.590;2023-09-18T15:43:07;24.00;99.90
29849;DHT22;16728;50.832;5.590;2023-09-18T15:46:09;23.90;99.90
29849;DHT22;16728;50.832;5.590;2023-09-18T15:49:10;23.80;99.90
29849;DHT22;16728;50.832;5.590;2023-09-18T15:52:12;23.80;99.90
29849;DHT22;16728;50.832;5.590;2023-09-18T15:55:14;23.70;99.90
29849;DHT22;16728;50.832;5.590;2023-09-18T15:58:16;23.70;99.90
29849;DHT22;16728;50.832;5.590;2023-09-18T16:01:19;23.60;99.90
29849;DHT22;16728;50.832;5.590;2023-09-18T16:04:22;23.50;99.90
29849;DHT22;16728;50.832;5.590;2023-09-18T16:07:26;23.50;99.90
29849;DHT22;16728;50.832;5.590;2023-09-18T16:10:28;23.50;99.90
29849;DHT22;16728;50.832;5.590;2023-09-18T16:13:30;23.40;99.90
29849;DHT22;16728;50.832;5.590;2023-09-18T16:16:32;23.40;99.90
29849;DHT22;16728;50.832;5.590;2023-09-18T16:19:35;23.30;99.90
29849;DHT22;16728;50.832;5.590;2023-09-18T16:22:37;23.20;99.90
29849;DHT22;16728;50.832;5.590;2023-09-18T16:25:39;22.90;99.90
29849;DHT22;16728;50.832;5.590;2023-09-18T16:28:41;22.60;99.90
29849;DHT22;16728;50.832;5.590;2023-09-18T16:31:43;22.40;99.90
29849;DHT22;16728;50.832;5.590;2023-09-18T16:34:45;22.20;99.90
29849;DHT22;16728;50.832;5.590;2023-09-18T16:37:48;22.10;99.90
29849;DHT22;16728;50.832;5.590;2023-09-18T16:40:49;21.90;99.90
29849;DHT22;16728;50.832;5.590;2023-09-18T16:43:52;21.60;99.90
29849;DHT22;16728;50.832;5.590;2023-09-18T16:46:54;21.30;99.90
29849;DHT22;16728;50.832;5.590;2023-09-18T16:49:56;21.10;99.90
29849;DHT22;16728;50.832;5.590;2023-09-18T16:52:58;21.00;99.90
29849;DHT22;16728;50.832;5.590;2023-09-18T16:56:00;20.80;99.90
29849;DHT22;16728;50.832;5.590;2023-09-18T16:59:02;20.70;99.90
29849;DHT22;16728;50.832;5.590;2023-09-18T17:02:05;20.60;99.90
29849;DHT22;16728;50.832;5.590;2023-09-18T17:05:10;20.50;99.90
29849;DHT22;16728;50.832;5.590;2023-09-18T17:08:12;20.50;99.90
29849;DHT22;16728;50.832;5.590;2023-09-18T17:11:13;20.50;99.90
29849;DHT22;16728;50.832;5.590;2023-09-18T17:14:15;20.40;99.90
29849;DHT22;16728;50.832;5.590;2023-09-18T17:17:18;20.30;99.90
29849;DHT22;16728;50.832;5.590;2023-09-18T17:20:20;20.30;99.90
29849;DHT22;16728;50.832;5.590;2023-09-18T17:23:23;20.30;99.90
29849;DHT22;16728;50.832;5.590;2023-09-18T17:26:25;20.30;99.90
29849;DHT22;16728;50.832;5.590;2023-09-18T17:29:29;20.30;99.90
29849;DHT22;16728;50.832;5.590;2023-09-18T17:32:31;20.20;99.90
29849;DHT22;16728;50.832;5.590;2023-09-18T17:35:35;20.20;99.90
29849;DHT22;16728;50.832;5.590;2023-09-18T17:38:41;20.20;99.90
29849;DHT22;16728;50.832;5.590;2023-09-18T17:41:45;20.30;99.90
29849;DHT22;16728;50.832;5.590;2023-09-18T17:44:48;20.20;99.90
29849;DHT22;16728;50.832;5.590;2023-09-18T17:47:51;20.20;99.90
29849;DHT22;16728;50.832;5.590;2023-09-18T17:50:53;20.20;99.90
29849;DHT22;16728;50.832;5.590;2023-09-18T17:53:55;20.20;99.90
29849;DHT22;16728;50.832;5.590;2023-09-18T17:56:57;20.20;99.90
29849;DHT22;16728;50.832;5.590;2023-09-18T17:59:59;20.20;99.90
29849;DHT22;16728;50.832;5.590;2023-09-18T18:03:02;20.10;99.90
29849;DHT22;16728;50.832;5.590;2023-09-18T18:06:08;20.10;99.90
29849;DHT22;16728;50.832;5.590;2023-09-18T18:09:11;20.10;99.90
29849;DHT22;16728;50.832;5.590;2023-09-18T18:12:13;20.10;99.90
29849;DHT22;16728;50.832;5.590;2023-09-18T18:15:15;20.00;99.90
29849;DHT22;16728;50.832;5.590;2023-09-18T18:18:18;20.00;99.90
29849;DHT22;16728;50.832;5.590;2023-09-18T18:21:20;19.90;99.90
29849;DHT22;16728;50.832;5.590;2023-09-18T18:24:22;19.90;99.90
29849;DHT22;16728;50.832;5.590;2023-09-18T18:27:24;19.90;99.90
29849;DHT22;16728;50.832;5.590;2023-09-18T18:30:26;19.90;99.90
29849;DHT22;16728;50.832;5.590;2023-09-18T18:33:28;19.90;99.90
29849;DHT22;16728;50.832;5.590;2023-09-18T18:36:31;20.00;99.90
29849;DHT22;16728;50.832;5.590;2023-09-18T18:39:33;20.00;99.90
29849;DHT22;16728;50.832;5.590;2023-09-18T18:42:36;20.00;99.90
29849;DHT22;16728;50.832;5.590;2023-09-18T18:45:38;19.90;99.90
29849;DHT22;16728;50.832;5.590;2023-09-18T18:48:40;20.00;99.90
29849;DHT22;16728;50.832;5.590;2023-09-18T18:51:42;20.00;99.90
29849;DHT22;16728;50.832;5.590;2023-09-18T18:54:45;20.00;99.90
29849;DHT22;16728;50.832;5.590;2023-09-18T18:57:49;20.00;99.90
29849;DHT22;16728;50.832;5.590;2023-09-18T19:01:03;20.00;99.90
29849;DHT22;16728;50.832;5.590;2023-09-18T19:04:06;20.00;99.90
29849;DHT22;16728;50.832;5.590;2023-09-18T19:07:08;19.90;99.90
29849;DHT22;16728;50.832;5.590;2023-09-18T19:10:13;19.90;99.90
29849;DHT22;16728;50.832;5.590;2023-09-18T19:13:15;19.90;99.90
29849;DHT22;16728;50.832;5.590;2023-09-18T19:16:17;19.90;99.90
29849;DHT22;16728;50.832;5.590;2023-09-18T19:19:19;19.90;99.90
29849;DHT22;16728;50.832;5.590;2023-09-18T19:22:21;19.90;99.90